It's Friday,
December 13th, 2019
User not logged in
[Run Race Header Image][Run Race logo]
  
Race webcasting is attempted by race directors and their support staff. Please remember that conditions under which they're working may make it difficult to post timely webcast updates... your interest and patience is appreciated!
Race Information
Race Name:2nd Annual Indiana Trail 100
Location:Albion
State:Indiana, United States
 button: button: Webcast Autoplay
Event Information
Name of Event:100 Mile Trail
Distance:100 Miles
Started Date/Time:Saturday April 26th, 2014, 5:59:34.15 am
button: Assign Numbers  
Checkpoint:Finish2
Distance:33.34 Miles
Gun Start Time:Saturday April 26th, 2014 5:59:34.15 am
Calculate Chip Start Time:< not set >
Y or N... Calculate splits based upon participant chip start time?
Allow Early Chip Start Time:< not set >
Y or N... Allow participants a chip start time prior to gun start?
Pos Race
Number
NameAgeSexTimePace 
1141Shan Riggs35M5:07:32.39:13.5Sat Apr 26th, 2014 11:07:06 am
2166Jim Trout44M5:16:54.29:30.3Sat Apr 26th, 2014 11:16:28 am
314John Bertram51M5:21:03.99:37.8Sat Apr 26th, 2014 11:20:38 am
4182Craig Wheeler52M5:24:07.29:43.3Sat Apr 26th, 2014 11:23:41 am
5149Todd Siebert32M5:24:25.59:43.8Sat Apr 26th, 2014 11:23:59 am
634Vincent Corona30M5:27:59.99:50.3Sat Apr 26th, 2014 11:27:34 am
741Paul Dott31M5:28:00.09:50.3Sat Apr 26th, 2014 11:27:34 am
879David E. Jackson36M5:33:50.310:00.8Sat Apr 26th, 2014 11:33:24 am
9148Travis Shields37M5:34:44.010:02.4Sat Apr 26th, 2014 11:34:18 am
10151Jen Skelly34F5:39:08.910:10.3Sat Apr 26th, 2014 11:38:43 am
11158Paul Stofko38M5:39:13.610:10.5Sat Apr 26th, 2014 11:38:47 am
1226Jessica Campbell21F5:39:28.310:10.9Sat Apr 26th, 2014 11:39:02 am
1328Tony Cesario50M5:44:03.410:19.2Sat Apr 26th, 2014 11:43:37 am
14177Eric Fritz46M5:45:27.210:21.7Sat Apr 26th, 2014 11:45:01 am
15140Kirk Ridenour54M5:52:03.210:33.6Sat Apr 26th, 2014 11:51:37 am
1645Nicholas Eiben19M5:52:07.810:33.7Sat Apr 26th, 2014 11:51:41 am
17104David Mentjes44M5:55:52.910:40.5Sat Apr 26th, 2014 11:55:27 am
18161Mika Thewes22F5:56:06.010:40.9Sat Apr 26th, 2014 11:55:40 am
19127Daniel Paige34M5:57:11.710:42.8Sat Apr 26th, 2014 11:56:45 am
20129Ben Pearce19M5:57:58.110:44.2Sat Apr 26th, 2014 11:57:32 am
21162Mark Thill38M5:58:34.710:45.3Sat Apr 26th, 2014 11:58:08 am
22108Joshua Mock32M5:59:47.910:47.5Sat Apr 26th, 2014 11:59:22 am
23112Frank Morris32M6:04:25.310:55.8Sat Apr 26th, 2014 12:03:59 pm
2462Martin Guthrie47M6:06:06.210:58.9Sat Apr 26th, 2014 12:05:40 pm
25119David Nichols53M6:06:24.310:59.4Sat Apr 26th, 2014 12:05:58 pm
26145James Schroeder37M6:06:24.610:59.4Sat Apr 26th, 2014 12:05:58 pm
27184Kinga Kokoc35F6:09:06.211:04.3Sat Apr 26th, 2014 12:08:40 pm
2898Kenneth Lynn42M6:11:03.311:07.8Sat Apr 26th, 2014 12:10:37 pm
2954Tom Fifer51M6:11:05.811:07.8Sat Apr 26th, 2014 12:10:39 pm
30128Jose Palmerin23M6:11:06.311:07.9Sat Apr 26th, 2014 12:10:40 pm
3150Linda Keuneke50F6:12:34.511:10.5Sat Apr 26th, 2014 12:12:08 pm
32126Julie Pagel29F6:14:08.511:13.3Sat Apr 26th, 2014 12:13:42 pm
3387Ryan "Stormy" Knight37M6:15:38.311:16.0Sat Apr 26th, 2014 12:15:12 pm
3436John Cushma40M6:16:11.211:17.0Sat Apr 26th, 2014 12:15:45 pm
35114Larry Mullinnix49M6:16:55.011:18.3Sat Apr 26th, 2014 12:16:29 pm
3668Shawn Hawk49M6:17:14.711:18.9Sat Apr 26th, 2014 12:16:48 pm
375LEE ANDERSON56M6:17:30.211:19.4Sat Apr 26th, 2014 12:17:04 pm
3857Mark Gavorski48M6:18:31.911:21.2Sat Apr 26th, 2014 12:18:06 pm
3921Bob Brashear55M6:19:14.211:22.5Sat Apr 26th, 2014 12:18:48 pm
40113SIAMAK MOSTOUFI39M6:20:01.511:23.9Sat Apr 26th, 2014 12:19:35 pm
4124todd brown45M6:20:01.611:23.9Sat Apr 26th, 2014 12:19:35 pm
4246Mike Else45M6:20:27.611:24.7Sat Apr 26th, 2014 12:20:01 pm
4317Andrew Borst43M6:21:06.511:25.9Sat Apr 26th, 2014 12:20:40 pm
4463Jerret Halter32M6:21:34.111:26.7Sat Apr 26th, 2014 12:21:08 pm
45183Anastasia Andrychowski34F6:21:43.111:27.0Sat Apr 26th, 2014 12:21:17 pm
4620Erin Brady42F6:23:53.011:30.9Sat Apr 26th, 2014 12:23:27 pm
4742Michael Dowdell38M6:23:53.611:30.9Sat Apr 26th, 2014 12:23:27 pm
48125Jeff Oliver40M6:24:23.811:31.8Sat Apr 26th, 2014 12:23:57 pm
4944Tanya Eggert44F6:25:36.611:34.0Sat Apr 26th, 2014 12:25:10 pm
50103Chris McMahon54M6:26:41.611:35.9Sat Apr 26th, 2014 12:26:15 pm
51115Carolynn Nauta32F6:27:20.111:37.1Sat Apr 26th, 2014 12:26:54 pm
5272Rich Henderson58M6:28:23.611:39.0Sat Apr 26th, 2014 12:27:57 pm
53180Michael Linkogel43M6:31:19.811:44.3Sat Apr 26th, 2014 12:30:53 pm
548Brian Barger53M6:33:24.511:48.0Sat Apr 26th, 2014 12:32:58 pm
55107Kirk Misaka55M6:35:52.711:52.4Sat Apr 26th, 2014 12:35:26 pm
5666Dick Canterbury66M6:37:24.811:55.2Sat Apr 26th, 2014 12:36:58 pm
57123Reggie O'HARA45M6:37:26.511:55.3Sat Apr 26th, 2014 12:37:00 pm
58116David Nelson26M6:38:05.711:56.4Sat Apr 26th, 2014 12:37:39 pm
59117Peter Nelson50M6:38:11.411:56.6Sat Apr 26th, 2014 12:37:45 pm
60134dave potter49M6:38:26.711:57.1Sat Apr 26th, 2014 12:38:00 pm
6155Zach Franklin31M6:39:52.611:59.6Sat Apr 26th, 2014 12:39:26 pm
62154Mike Smith56M6:41:05.012:01.8Sat Apr 26th, 2014 12:40:39 pm
63133Richard Plezia55M6:41:58.512:03.4Sat Apr 26th, 2014 12:41:32 pm
64105Craig Meseko29M6:45:56.612:10.6Sat Apr 26th, 2014 12:45:30 pm
65165Judd Trayling40M6:46:30.712:11.6Sat Apr 26th, 2014 12:46:04 pm
6661Graham Grove36M6:46:44.312:12.0Sat Apr 26th, 2014 12:46:18 pm
67159Steve Sunbury44M6:53:37.212:24.4Sat Apr 26th, 2014 12:53:11 pm
68156Phil Stapert47M6:54:08.212:25.3Sat Apr 26th, 2014 12:53:42 pm
69143Matthew Santner37M6:54:08.612:25.3Sat Apr 26th, 2014 12:53:42 pm
7076Scott Hudson46M6:54:17.512:25.6Sat Apr 26th, 2014 12:53:51 pm
7183Chris Junken35M6:55:41.212:28.1Sat Apr 26th, 2014 12:55:15 pm
72169Chris Walker34M6:55:41.612:28.1Sat Apr 26th, 2014 12:55:15 pm
7391Bill Kulwicki55M6:56:20.412:29.3Sat Apr 26th, 2014 12:55:54 pm
74185Glenn Kasper50M6:56:29.812:29.5Sat Apr 26th, 2014 12:56:03 pm
7556Helen Garen49F6:57:35.512:31.5Sat Apr 26th, 2014 12:57:09 pm
76111James Cooper44M6:58:15.712:32.7Sat Apr 26th, 2014 12:57:49 pm
77163Derek Tinnin46M6:58:29.612:33.1Sat Apr 26th, 2014 12:58:03 pm
78181Rene Samano28M6:59:00.112:34.1Sat Apr 26th, 2014 12:58:34 pm
7939Nathan DeWall34M6:59:29.112:34.9Sat Apr 26th, 2014 12:59:03 pm
8025Aaron Butler32M7:00:20.312:36.5Sat Apr 26th, 2014 12:59:54 pm
8140Noe j Dominguez45M7:00:21.312:36.5Sat Apr 26th, 2014 12:59:55 pm
82178Joe Cuthbertson39M7:00:36.312:36.9Sat Apr 26th, 2014 1:00:10 pm
83124Ethan Olds24M7:01:13.212:38.0Sat Apr 26th, 2014 1:00:47 pm
846Ric Angara43M7:02:02.812:39.5Sat Apr 26th, 2014 1:01:37 pm
8582Juan Juarez42M7:05:44.912:46.2Sat Apr 26th, 2014 1:05:19 pm
86130Alfredo ''Moose'' Pedro45M7:05:47.512:46.3Sat Apr 26th, 2014 1:05:21 pm
87135Rob Putz48M7:11:24.812:56.4Sat Apr 26th, 2014 1:10:58 pm
8864Cindylee Torres54F7:12:39.512:58.6Sat Apr 26th, 2014 1:12:13 pm
89136Rashad Qadir50M7:13:21.812:59.9Sat Apr 26th, 2014 1:12:56 pm
9093John Leighton53M7:14:08.013:01.3Sat Apr 26th, 2014 1:13:42 pm
9152Jamie Farley35M7:15:15.113:03.3Sat Apr 26th, 2014 1:14:49 pm
9231Mark Coates33M7:16:24.113:05.4Sat Apr 26th, 2014 1:15:58 pm
932Kurt Adams35M7:16:31.513:05.6Sat Apr 26th, 2014 1:16:05 pm
94174Randall Yost55M7:18:27.013:09.1Sat Apr 26th, 2014 1:18:01 pm
95147mark sheeran54M7:21:38.713:14.8Sat Apr 26th, 2014 1:21:12 pm
96175David Zent38M7:23:51.813:18.8Sat Apr 26th, 2014 1:23:25 pm
9758Gary Gentry48M7:24:45.013:20.4Sat Apr 26th, 2014 1:24:19 pm
9869Kent Heck52M7:29:45.113:29.4Sat Apr 26th, 2014 1:29:19 pm
994Jonathon Amlung44M7:34:18.113:37.6Sat Apr 26th, 2014 1:33:52 pm
100122Terry Null55M7:34:18.213:37.6Sat Apr 26th, 2014 1:33:52 pm
101179Elizabeth Hermans31F7:35:01.813:38.9Sat Apr 26th, 2014 1:34:35 pm
102146Rob Schultz47M7:35:06.313:39.0Sat Apr 26th, 2014 1:34:40 pm
10333Aaron Conner41M7:35:37.713:40.0Sat Apr 26th, 2014 1:35:11 pm
104142Steve Riportella48M7:35:59.813:40.6Sat Apr 26th, 2014 1:35:33 pm
10574Alex "ACE" Honigford33M7:37:07.313:42.7Sat Apr 26th, 2014 1:36:41 pm
10678Lauren Idzik43F7:37:09.213:42.7Sat Apr 26th, 2014 1:36:43 pm
10773Jeff Hogan45M7:37:31.113:43.4Sat Apr 26th, 2014 1:37:05 pm
108171Marci Wease37F7:39:05.713:46.2Sat Apr 26th, 2014 1:38:39 pm
10916toni bohannon46F7:39:06.313:46.2Sat Apr 26th, 2014 1:38:40 pm
110137Jamie Quarandillo40F7:40:19.413:48.4Sat Apr 26th, 2014 1:39:53 pm
11148Karen Erba44F7:42:25.413:52.2Sat Apr 26th, 2014 1:41:59 pm
1123Justin Alford40M7:42:56.213:53.1Sat Apr 26th, 2014 1:42:30 pm
113176Stan Zygmunt51M7:44:02.213:55.1Sat Apr 26th, 2014 1:43:36 pm
11418James Bowers36M7:44:02.313:55.1
11599Daniel Maddox38M7:44:40.113:56.2Sat Apr 26th, 2014 1:44:14 pm
11653Ramon Ferrer Jr34M7:44:57.513:56.8Sat Apr 26th, 2014 1:44:31 pm
117132Catherine Pinkston29F7:47:02.814:00.5Sat Apr 26th, 2014 1:46:36 pm
11886John Klarquist49M7:47:17.014:00.9Sat Apr 26th, 2014 1:46:51 pm
119120Caleb Nolen28M7:51:24.514:08.4Sat Apr 26th, 2014 1:50:58 pm
12013Richard Benjamin58M7:53:13.914:11.6Sat Apr 26th, 2014 1:52:48 pm
121121Mark Norfleet57M7:58:16.714:20.7Sat Apr 26th, 2014 1:57:50 pm
12247David Englund46M7:58:23.514:20.9Sat Apr 26th, 2014 1:57:57 pm
123150Robert Siscoe59M7:59:53.614:23.6Sat Apr 26th, 2014 1:59:27 pm
12435Joe Cortez49M8:00:49.114:25.3Sat Apr 26th, 2014 2:00:23 pm
125131Scott Peterson38M8:08:52.814:39.8Sat Apr 26th, 2014 2:08:26 pm
126110Doug Morris60M8:09:05.614:40.2Sat Apr 26th, 2014 2:08:39 pm
12790Steven Kuhl62M8:09:34.414:41.1Sat Apr 26th, 2014 2:09:08 pm
12881MELISSA JOYCE-HASSAN49F8:10:02.914:41.9Sat Apr 26th, 2014 2:09:37 pm
12938James Davidson51M8:11:57.214:45.3Sat Apr 26th, 2014 2:11:31 pm
1309Crystal Barton38F8:12:07.414:45.6Sat Apr 26th, 2014 2:11:41 pm
13112Richard Barton61M8:12:07.814:45.7Sat Apr 26th, 2014 2:11:41 pm
132168Jesse Vasquez38M8:12:15.714:45.9Sat Apr 26th, 2014 2:11:49 pm
133173Michael Wolff41M8:12:27.314:46.2Sat Apr 26th, 2014 2:12:01 pm
134101Sondra Marker50F8:12:56.714:47.1Sat Apr 26th, 2014 2:12:30 pm
13510Kathy Barton57F8:12:57.214:47.1Sat Apr 26th, 2014 2:12:31 pm
13611Mark Barton57M8:13:23.014:47.9Sat Apr 26th, 2014 2:12:57 pm
13729Curt Chambers53M8:14:07.314:49.2Sat Apr 26th, 2014 2:13:41 pm
13823Kimmie Brown34F8:17:45.014:55.8Sat Apr 26th, 2014 2:17:19 pm
139102Rick McClain52M8:18:34.814:57.3Sat Apr 26th, 2014 2:18:09 pm
140106Jeremy Miller44M8:19:00.414:58.0Sat Apr 26th, 2014 2:18:34 pm
14170Mike Heider54M8:19:07.214:58.2Sat Apr 26th, 2014 2:18:41 pm
142172Kenneth Westerman55M8:21:45.215:03.0Sat Apr 26th, 2014 2:21:19 pm
14315sandra bocchicchio41F8:21:47.415:03.0Sat Apr 26th, 2014 2:21:21 pm
14497Suann Lundsberg38F8:23:19.715:05.8Sat Apr 26th, 2014 2:22:53 pm
14527Dennis Cantrell53M8:26:21.815:11.3Sat Apr 26th, 2014 2:25:55 pm
14675Bruce Houston57M8:26:58.815:12.4Sat Apr 26th, 2014 2:26:32 pm
147157Fred Steuber46M8:32:41.815:22.7Sat Apr 26th, 2014 2:32:15 pm
1487REGINA ARVIN41F8:36:17.115:29.1Sat Apr 26th, 2014 2:35:51 pm
14984Larry Kelley47M8:36:29.215:29.5Sat Apr 26th, 2014 2:36:03 pm
150167Ali Turfe50M8:44:27.915:43.8Sat Apr 26th, 2014 2:44:02 pm
151138Frank Rampton57M8:50:33.215:54.8Sat Apr 26th, 2014 2:50:07 pm
15230Katie Cloninger36F10:32:18.918:57.9Sat Apr 26th, 2014 4:31:53 pm
153152Dean Smith41M11:36:50.920:54.1Sat Apr 26th, 2014 5:36:25 pm

Event Information
Name of Event:50 Mile Trail
Distance:50 Miles
Started Date/Time:Saturday April 26th, 2014, 5:59:34.15 am
button: Assign Numbers 
2004-2019 : All rights reserved
Terms and Conditions